Impacts METAR Board INFO
IDs:

KCLE - Cleveland/Hopkins In, OH, US

Updated at: 0853 UTC 22 Feb 2018
Potential Impact None Slight Moderate High
Time21/20Z 21/21Z 21/22Z 21/23Z 22/00Z 22/01Z 22/02Z 22/03Z 22/04Z 22/05Z 22/06Z 22/07Z 22/08Z
VIS10 10 10 10 10 9 9 10 10 8
CIG6 8 8 15 60 70 65 10 9 9
CoverOVCOVCOVCOVCOVCOVCOVCOVCOVCOVC
FltCatIFRIFRIFRMVFRVFRVFRVFRMVFRIFRIFR
WX-RA---------SN -PL-SN -PL-----SN -PL
WDir20203040303030503030
WSpd11 11 11 10 8 10 10 11 10 13
WGst-- -- -- -- -- -- -- -- -- --
Raw hourly METARs
KCLE 211951Z 02011KT 10SM -RA OVC006 03/02 A3049 RMK AO2 RAE16B41 SLP325 P0000 T00330022
KCLE 212051Z 02011KT 10SM OVC008 03/01 A3052 RMK AO2 SLP338 RAE24 P0001 60004 T00280011 53017
KCLE 212151Z 03011KT 10SM OVC008 02/01 A3055 RMK AO2 SLP348 T00220011
KCLE 212251Z 04010KT 10SM FEW011 BKN015 OVC110 02/M01 A3056 RMK AO2 SLP350 T00171006
KCLE 212351Z 03008KT 10SM BKN060 BKN070 OVC085 02/M01 A3060 RMK AO2 SLP366 60004 T00171011 10039 20017 53016



KCLE 220351Z 03010KT 9SM -SNPL FEW015 OVC070 01/M02 A3061 RMK AO2 RAE08 SLP374 P0000 T00061017
KCLE 220451Z 03010KT 9SM -SNPL FEW010 BKN065 OVC080 01/M02 A3063 RMK AO2 SLP379 P0001 T00061017 402060006
KCLE 220551Z 05011KT 10SM BKN010 BKN060 OVC080 01/M02 A3061 RMK AO2 SNE30PLE30 SLP375 P0000 60001 T00061017 10017 20006 58003
KCLE 220656Z 03010KT 10SM BKN009 OVC060 01/M02 A3061 RMK AO2 T00061017
KCLE 220751Z 03013KT 8SM -SNPL OVC009 00/M02 A3060 RMK AO2 SNB15PLB15 SLP371 P0001 T00001017